Time;durP1;ratioP1;P1;durP2;ratioP2;P2;SDS_P1;SDS_P2;PMS_P1;PMS_P2;Temp;Humidity;BMP_temperature;BMP_pressure;BME280_temperature;BME280_humidity;BME280_pressure;Samples;Min_cycle;Max_cycle;Signal;HPM_P1;HPM_P2
2024/02/07 00:01:22;;;;;;;;;;;;;;;3.21;100.00;99107.84;5055532;28;19936;-79
2024/02/07 00:03:55;;;;;;;;;;;;;;;3.22;100.00;99115.63;5021323;28;19944;-79
2024/02/07 00:06:23;;;;;;;;;;;;;;;3.19;100.00;99108.13;5024242;28;19929;-79
2024/02/07 00:08:51;;;;;;;;;;;;;;;3.22;100.00;99110.25;5026488;28;20378;-79
2024/02/07 00:11:19;;;;;;;;;;;;;;;3.25;100.00;99118.88;5028213;28;19936;-79
2024/02/07 00:13:47;;;;;;;;;;;;;;;3.24;100.00;99118.06;5039883;28;19932;-79
2024/02/07 00:16:17;;;;;;;;;;;;;;;3.32;100.00;99111.34;5024164;28;19944;-79
2024/02/07 00:18:50;;;;;;;;;;;;;;;3.36;100.00;99105.13;5022272;28;19929;-79
2024/02/07 00:21:18;;;;;;;;;;;;;;;3.37;100.00;99108.63;5057627;28;20517;-79
2024/02/07 00:23:51;;;;;;;;;;;;;;;3.42;100.00;99107.84;5023416;28;20377;-79
2024/02/07 00:26:25;;;;;;;;;;;;;;;3.44;100.00;99095.72;5021730;28;19925;-79
2024/02/07 00:28:53;;;;;;;;;;;;;;;3.45;100.00;99102.69;5037578;28;19932;-79
2024/02/07 00:31:23;;;;;;;;;;;;;;;3.47;100.00;99100.56;5037456;28;20610;-79
2024/02/07 00:33:56;;;;;;;;;;;;;;;3.49;100.00;99106.47;5026573;28;19929;-79
2024/02/07 00:36:24;;;;;;;;;;;;;;;3.49;100.00;99095.69;5035309;28;19936;-79
2024/02/07 00:38:52;;;;;;;;;;;;;;;3.54;100.00;99102.97;5020647;28;20250;-79
2024/02/07 00:41:25;;;;;;;;;;;;;;;3.60;100.00;99101.06;5026250;28;20281;-79
2024/02/07 00:43:53;;;;;;;;;;;;;;;3.59;100.00;99102.97;5044040;28;19929;-79
2024/02/07 00:46:27;;;;;;;;;;;;;;;3.62;100.00;99106.97;5024678;28;19936;-79
2024/02/07 00:48:57;;;;;;;;;;;;;;;3.60;100.00;99095.69;5022594;28;19951;-79
2024/02/07 00:51:24;;;;;;;;;;;;;;;3.60;100.00;99104.56;5054001;28;19929;-79
2024/02/07 00:53:57;;;;;;;;;;;;;;;3.64;100.00;99105.63;5020773;28;19932;-79
2024/02/07 00:56:31;;;;;;;;;;;;;;;3.63;100.00;99114.78;5028063;28;19937;-79
2024/02/07 00:59:04;;;;;;;;;;;;;;;3.65;100.00;99101.88;5024614;28;19944;-79
2024/02/07 01:01:33;;;;;;;;;;;;;;;3.62;100.00;99107.81;5021781;28;19929;-79
2024/02/07 01:04:06;;;;;;;;;;;;;;;3.64;100.00;99110.22;5019241;28;19929;-79
2024/02/07 01:06:34;;;;;;;;;;;;;;;3.65;100.00;99114.53;5020847;28;19929;-79
2024/02/07 01:09:10;;;;;;;;;;;;;;;3.69;100.00;99102.13;5024415;28;19933;-79
2024/02/07 01:11:38;;;;;;;;;;;;;;;3.66;100.00;99091.91;5021329;28;19926;-79
2024/02/07 01:14:06;;;;;;;;;;;;;;;3.73;100.00;99100.50;5020929;28;19951;-79
2024/02/07 01:16:41;;;;;;;;;;;;;;;3.66;100.00;99106.19;5022872;28;19933;-79
2024/02/07 01:19:14;;;;;;;;;;;;;;;3.67;100.00;99110.47;5018710;28;19948;-79
2024/02/07 01:21:47;;;;;;;;;;;;;;;3.68;100.00;99095.13;5023264;28;19929;-79
2024/02/07 01:24:20;;;;;;;;;;;;;;;3.70;100.00;99109.09;5042256;28;19934;-79
2024/02/07 01:26:53;;;;;;;;;;;;;;;3.66;100.00;99108.88;5022409;28;19925;-79
2024/02/07 01:29:26;;;;;;;;;;;;;;;3.67;100.00;99106.97;5019354;28;19936;-79
2024/02/07 01:32:00;;;;;;;;;;;;;;;3.67;100.00;99115.03;5021828;28;19936;-79
2024/02/07 01:34:33;;;;;;;;;;;;;;;3.67;100.00;99106.97;5020788;28;19940;-79
2024/02/07 01:37:01;;;;;;;;;;;;;;;3.63;100.00;99101.31;5051349;28;19936;-79
2024/02/07 01:39:35;;;;;;;;;;;;;;;3.70;100.00;99104.56;5020700;28;19929;-79
2024/02/07 01:42:08;;;;;;;;;;;;;;;3.65;100.00;99096.50;5019394;28;19936;-79
2024/02/07 01:44:40;;;;;;;;;;;;;;;3.63;100.00;99104.00;5026158;28;19933;-79
2024/02/07 01:47:11;;;;;;;;;;;;;;;3.69;100.00;99094.88;5021688;28;19929;-79
2024/02/07 01:49:46;;;;;;;;;;;;;;;3.67;100.00;99102.38;5022646;28;20661;-79
2024/02/07 01:52:15;;;;;;;;;;;;;;;3.62;100.00;99096.22;5052530;28;19937;-79
2024/02/07 01:54:48;;;;;;;;;;;;;;;3.58;100.00;99104.03;5024663;28;19925;-79
2024/02/07 01:57:17;;;;;;;;;;;;;;;3.61;100.00;99102.69;5021286;28;19930;-79
2024/02/07 01:59:50;;;;;;;;;;;;;;;3.64;100.00;99092.19;5051343;28;19929;-79
2024/02/07 02:02:23;;;;;;;;;;;;;;;3.65;100.00;99103.75;5053992;28;19937;-79
2024/02/07 02:04:56;;;;;;;;;;;;;;;3.69;100.00;99096.75;5020700;28;20504;-79
2024/02/07 02:07:28;;;;;;;;;;;;;;;3.71;100.00;99092.69;5042035;28;19933;-79
2024/02/07 02:09:56;;;;;;;;;;;;;;;3.68;100.00;99089.75;5017151;28;19929;-79
2024/02/07 02:12:24;;;;;;;;;;;;;;;3.71;100.00;99091.91;5020212;28;20465;-79
2024/02/07 02:14:58;;;;;;;;;;;;;;;3.62;100.00;99080.06;5021691;28;20306;-79
2024/02/07 02:17:27;;;;;;;;;;;;;;;3.66;100.00;99079.28;5038319;28;20274;-79
2024/02/07 02:20:00;;;;;;;;;;;;;;;3.64;100.00;99088.69;5024597;28;20424;-79
2024/02/07 02:22:47;;;;;;;;;;;;;;;3.68;100.00;99084.38;5026325;28;19925;-78
2024/02/07 02:25:34;;;;;;;;;;;;;;;3.66;100.00;99076.59;5049719;28;19933;-79
2024/02/07 02:28:07;;;;;;;;;;;;;;;3.63;100.00;99087.06;5023434;28;19929;-79
2024/02/07 02:30:50;;;;;;;;;;;;;;;3.62;100.00;99105.09;5020352;28;19933;-79
2024/02/07 02:33:25;;;;;;;;;;;;;;;3.63;100.00;99087.88;5021284;28;19932;-78
2024/02/07 02:35:54;;;;;;;;;;;;;;;3.63;100.00;99087.06;5021767;28;19936;-79
2024/02/07 02:38:27;;;;;;;;;;;;;;;3.67;100.00;99083.56;5029075;28;19929;-79
2024/02/07 02:40:59;;;;;;;;;;;;;;;3.67;100.00;99078.16;5024413;28;19952;-79
2024/02/07 02:43:27;;;;;;;;;;;;;;;3.65;100.00;99074.97;5026988;28;19929;-79
2024/02/07 02:45:57;;;;;;;;;;;;;;;3.68;100.00;99085.16;5055433;28;19931;-78
2024/02/07 02:48:30;;;;;;;;;;;;;;;3.63;100.00;99071.72;5026065;28;19935;-79
2024/02/07 02:50:59;;;;;;;;;;;;;;;3.63;100.00;99079.00;5028111;28;20582;-78
2024/02/07 02:53:27;;;;;;;;;;;;;;;3.62;100.00;99066.63;5024202;28;19929;-79
2024/02/07 02:56:02;;;;;;;;;;;;;;;3.66;100.00;99073.06;5028308;28;19925;-79
2024/02/07 02:58:30;;;;;;;;;;;;;;;3.63;100.00;99071.72;5053939;28;19929;-79
2024/02/07 03:01:03;;;;;;;;;;;;;;;3.61;100.00;99068.53;5024172;28;19925;-79
2024/02/07 03:03:37;;;;;;;;;;;;;;;3.62;100.00;99072.81;5026721;28;19929;-79
2024/02/07 03:06:18;;;;;;;;;;;;;;;3.62;100.00;99072.81;5017554;28;19925;-79
2024/02/07 03:08:54;;;;;;;;;;;;;;;3.65;100.00;99079.56;5022372;28;19925;-79
2024/02/07 03:11:21;;;;;;;;;;;;;;;3.64;100.00;99084.09;5060105;28;19940;-78
2024/02/07 03:13:50;;;;;;;;;;;;;;;3.70;100.00;99077.66;5022636;28;20385;-79
2024/02/07 03:16:19;;;;;;;;;;;;;;;3.67;100.00;99078.16;5021274;28;20294;-79
2024/02/07 03:18:52;;;;;;;;;;;;;;;3.67;100.00;99077.38;5028545;28;19956;-79
2024/02/07 03:21:21;;;;;;;;;;;;;;;3.67;100.00;99086.25;5024917;28;19929;-79
2024/02/07 03:23:49;;;;;;;;;;;;;;;3.67;100.00;99075.47;5025005;28;19929;-79
2024/02/07 03:26:23;;;;;;;;;;;;;;;3.68;100.00;99082.47;5042661;28;19933;-79
2024/02/07 03:28:51;;;;;;;;;;;;;;;3.68;100.00;99081.69;5022310;28;20409;-79
2024/02/07 03:31:21;;;;;;;;;;;;;;;3.67;100.00;99088.13;5023814;28;19925;-78
2024/02/07 03:33:49;;;;;;;;;;;;;;;3.64;100.00;99094.88;5019929;28;19929;-79
2024/02/07 03:36:17;;;;;;;;;;;;;;;3.71;100.00;99092.69;5024911;28;19929;-79
2024/02/07 03:38:50;;;;;;;;;;;;;;;3.70;100.00;99096.47;5022738;28;19929;-79
2024/02/07 03:41:18;;;;;;;;;;;;;;;3.71;100.00;99090.00;5022349;28;20393;-79
2024/02/07 03:43:51;;;;;;;;;;;;;;;3.75;100.00;99099.13;5026225;28;20388;-78
2024/02/07 03:46:21;;;;;;;;;;;;;;;3.74;100.00;99096.72;5053176;28;20379;-79
2024/02/07 03:48:54;;;;;;;;;;;;;;;3.81;100.00;99104.50;5022809;28;20397;-78
2024/02/07 03:51:27;;;;;;;;;;;;;;;3.91;100.00;99102.59;5024140;28;20408;-79
2024/02/07 03:53:54;;;;;;;;;;;;;;;3.80;100.00;99100.19;5024162;28;20305;-79
2024/02/07 03:56:28;;;;;;;;;;;;;;;3.78;100.00;99107.75;5055390;28;19929;-79
2024/02/07 03:59:02;;;;;;;;;;;;;;;3.79;100.00;99112.06;5020883;28;19929;-79
2024/02/07 04:01:31;;;;;;;;;;;;;;;3.81;100.00;99115.28;5022944;28;20298;-79
2024/02/07 04:03:59;;;;;;;;;;;;;;;3.69;100.00;99112.91;5036944;28;19926;-78
2024/02/07 04:06:33;;;;;;;;;;;;;;;3.68;100.00;99116.66;5022883;28;19929;-79
2024/02/07 04:09:06;;;;;;;;;;;;;;;3.60;100.00;99119.91;5024189;28;19925;-79
2024/02/07 05:15:52;;;;;;;;;;;;;;;3.16;100.00;99175.03;5025498;28;19929;-79
2024/02/07 05:18:25;;;;;;;;;;;;;;;3.20;100.00;99178.81;5019132;28;19936;-79
2024/02/07 05:20:53;;;;;;;;;;;;;;;3.16;100.00;99177.72;5034183;28;19956;-79
2024/02/07 05:23:23;;;;;;;;;;;;;;;3.13;100.00;99189.03;5022450;28;19941;-79
2024/02/07 05:25:51;;;;;;;;;;;;;;;3.09;100.00;99190.63;5038796;28;19936;-79
2024/02/07 05:28:24;;;;;;;;;;;;;;;3.12;100.00;99214.28;5026551;28;19929;-78
2024/02/07 05:30:58;;;;;;;;;;;;;;;3.12;100.00;99208.91;5026366;28;19929;-79
2024/02/07 05:33:31;;;;;;;;;;;;;;;3.14;100.00;99212.94;5023589;28;19932;-79
2024/02/07 05:36:04;;;;;;;;;;;;;;;3.08;100.00;99219.41;5026346;28;19929;-79
2024/02/07 05:38:39;;;;;;;;;;;;;;;3.06;100.00;99224.22;5022124;28;19936;-78
2024/02/07 05:41:07;;;;;;;;;;;;;;;3.10;100.00;99232.56;5022520;28;19932;-78
2024/02/07 05:43:35;;;;;;;;;;;;;;;3.08;100.00;99238.22;5023859;28;19940;-79
2024/02/07 05:46:07;;;;;;;;;;;;;;;3.06;100.00;99254.59;5052282;28;19929;-78
2024/02/07 05:48:40;;;;;;;;;;;;;;;2.89;100.00;99267.47;5018385;28;19925;-78
2024/02/07 05:51:18;;;;;;;;;;;;;;;2.69;100.00;99263.63;5036220;28;19930;-78
2024/02/07 05:53:47;;;;;;;;;;;;;;;2.66;100.00;99258.75;5023610;28;19944;-78
2024/02/07 05:56:20;;;;;;;;;;;;;;;2.62;100.00;99265.72;5021909;28;19925;-78
2024/02/07 05:58:53;;;;;;;;;;;;;;;2.67;100.00;99273.00;5020870;28;19940;-78
2024/02/07 06:01:27;;;;;;;;;;;;;;;2.64;100.00;99274.34;5035483;28;19936;-79
2024/02/07 06:04:02;;;;;;;;;;;;;;;2.61;100.00;99280.25;5055312;28;19929;-78
2024/02/07 06:06:36;;;;;;;;;;;;;;;2.62;100.00;99289.09;5023005;28;19940;-79
2024/02/07 06:09:10;;;;;;;;;;;;;;;2.59;100.00;99287.75;5021472;28;20385;-79
2024/02/07 06:11:44;;;;;;;;;;;;;;;2.57;100.00;99294.44;5029026;28;19929;-78
2024/02/07 06:14:17;;;;;;;;;;;;;;;2.60;100.00;99293.94;5027644;28;20648;-79
2024/02/07 06:16:50;;;;;;;;;;;;;;;2.54;100.00;99301.97;5029900;28;19929;-78
2024/02/07 06:19:23;;;;;;;;;;;;;;;2.50;100.00;99297.34;5023592;28;19925;-78
2024/02/07 06:21:56;;;;;;;;;;;;;;;2.51;100.00;99298.97;5025394;28;19929;-78
2024/02/07 06:24:30;;;;;;;;;;;;;;;2.55;100.00;99302.75;5021077;28;19930;-79
2024/02/07 06:26:58;;;;;;;;;;;;;;;2.48;100.00;99315.63;5055889;28;19929;-78
2024/02/07 06:29:31;;;;;;;;;;;;;;;2.44;100.00;99299.19;5030969;28;19932;-78
2024/02/07 06:31:59;;;;;;;;;;;;;;;2.42;100.00;99303.22;5024020;28;20388;-79
2024/02/07 06:34:31;;;;;;;;;;;;;;;2.36;100.00;99316.63;5026145;28;19933;-78
2024/02/07 06:37:04;;;;;;;;;;;;;;;2.41;100.00;99321.22;5020056;28;20377;-78
2024/02/07 06:39:39;;;;;;;;;;;;;;;2.36;100.00;99323.84;5022553;28;19932;-78
2024/02/07 06:42:11;;;;;;;;;;;;;;;2.35;100.00;99328.44;5022976;28;19932;-78
2024/02/07 06:44:44;;;;;;;;;;;;;;;2.33;100.00;99340.47;5024103;28;19936;-78
2024/02/07 06:47:12;;;;;;;;;;;;;;;2.33;100.00;99343.16;5056522;28;19944;-78
2024/02/07 06:49:45;;;;;;;;;;;;;;;2.28;100.00;99356.53;5027368;28;20141;-79
2024/02/07 06:52:18;;;;;;;;;;;;;;;2.31;100.00;99353.38;5057999;28;19936;-78
2024/02/07 06:54:52;;;;;;;;;;;;;;;2.39;100.00;99358.25;5021561;28;19925;-79
2024/02/07 06:57:25;;;;;;;;;;;;;;;2.28;100.00;99367.28;5021782;28;19933;-79
2024/02/07 06:59:58;;;;;;;;;;;;;;;2.22;100.00;99366.44;5026855;28;19933;-78
2024/02/07 07:02:26;;;;;;;;;;;;;;;2.23;100.00;99376.13;5040582;28;20382;-78
2024/02/07 07:04:54;;;;;;;;;;;;;;;2.24;100.00;99376.91;5021622;28;19930;-78
2024/02/07 07:07:22;;;;;;;;;;;;;;;2.18;100.00;99389.50;5022821;28;19971;-78
2024/02/07 07:09:56;;;;;;;;;;;;;;;2.18;100.00;99405.59;5029273;28;19933;-78
2024/02/07 07:12:24;;;;;;;;;;;;;;;2.14;100.00;99399.13;5053709;28;19936;-79
2024/02/07 07:14:57;;;;;;;;;;;;;;;2.10;100.00;99400.69;5041088;28;19926;-78
2024/02/07 07:17:30;;;;;;;;;;;;;;;2.03;100.00;99414.31;5042829;28;19929;-78
2024/02/07 07:20:03;;;;;;;;;;;;;;;2.06;100.00;99410.31;5025130;28;20408;-78
2024/02/07 07:22:31;;;;;;;;;;;;;;;2.02;100.00;99412.72;5052505;28;19925;-78
2024/02/07 07:25:01;;;;;;;;;;;;;;;1.97;100.00;99416.16;5040576;28;19937;-78
2024/02/07 07:27:34;;;;;;;;;;;;;;;1.96;100.00;99413.72;5028087;28;20381;-76
2024/02/07 07:30:09;;;;;;;;;;;;;;;1.91;100.00;99411.00;5042360;28;19929;-78
2024/02/07 07:32:42;;;;;;;;;;;;;;;1.91;100.00;99419.06;5025790;28;19925;-78
2024/02/07 07:35:15;;;;;;;;;;;;;;;1.94;100.00;99416.66;5022460;28;19933;-78
2024/02/07 07:37:48;;;;;;;;;;;;;;;1.93;100.00;99425.75;5030828;28;19936;-78
2024/02/07 07:40:23;;;;;;;;;;;;;;;1.92;100.00;99439.44;5023365;28;19929;-78
2024/02/07 07:42:56;;;;;;;;;;;;;;;1.93;100.00;99439.19;5025734;28;20298;-79
2024/02/07 07:45:24;;;;;;;;;;;;;;;1.91;100.00;99448.56;5023379;28;19929;-77
2024/02/07 07:47:51;;;;;;;;;;;;;;;1.87;100.00;99442.88;5026514;28;19929;-78
2024/02/07 07:50:24;;;;;;;;;;;;;;;1.84;100.00;99441.50;5024179;28;19928;-78
2024/02/07 07:52:55;;;;;;;;;;;;;;;1.80;100.00;99445.75;5021779;28;20298;-78
2024/02/07 07:55:37;;;;;;;;;;;;;;;1.74;100.00;99449.47;5011287;28;19941;-78
2024/02/07 07:58:04;;;;;;;;;;;;;;;1.77;100.00;99462.38;5001085;28;19933;-78
2024/02/07 08:00:38;;;;;;;;;;;;;;;1.78;100.00;99466.69;5014278;28;19933;-78
2024/02/07 08:03:11;;;;;;;;;;;;;;;1.78;100.00;99469.38;5011850;28;20400;-79
2024/02/07 08:05:44;;;;;;;;;;;;;;;1.73;100.00;99474.66;5007865;28;19937;-78
2024/02/07 08:08:12;;;;;;;;;;;;;;;1.74;100.00;99476.28;5010407;28;19940;-79
2024/02/07 08:10:42;;;;;;;;;;;;;;;1.74;100.00;99484.34;5002304;28;19933;-78
2024/02/07 08:13:15;;;;;;;;;;;;;;;1.74;100.00;99492.38;5005136;28;21228;-78
2024/02/07 08:15:48;;;;;;;;;;;;;;;1.87;100.00;99491.97;5004788;28;19933;-78
2024/02/07 08:18:21;;;;;;;;;;;;;;;1.89;100.00;99498.97;5014109;28;19940;-78
2024/02/07 08:20:54;;;;;;;;;;;;;;;1.86;100.00;99495.75;5015262;28;19940;-79
2024/02/07 08:23:27;;;;;;;;;;;;;;;1.88;100.00;99498.19;5011534;28;19940;-79
2024/02/07 08:25:56;;;;;;;;;;;;;;;1.84;100.00;99502.41;5011753;28;19936;-78
2024/02/07 08:28:24;;;;;;;;;;;;;;;1.87;100.00;99505.38;5012307;28;19933;-78
2024/02/07 08:30:52;;;;;;;;;;;;;;;1.85;100.00;99515.56;5008199;28;20597;-77
2024/02/07 08:33:20;;;;;;;;;;;;;;;1.90;100.00;99524.75;5006728;28;19933;-79
2024/02/07 08:35:52;;;;;;;;;;;;;;;1.91;100.00;99521.00;5020674;28;19933;-78
2024/02/07 08:38:25;;;;;;;;;;;;;;;1.93;100.00;99517.00;5015653;28;19937;-78
2024/02/07 08:40:54;;;;;;;;;;;;;;;2.02;100.00;99507.44;5003850;28;19943;-78
2024/02/07 08:43:23;;;;;;;;;;;;;;;2.01;100.00;99526.47;5001438;28;20396;-78
2024/02/07 08:45:56;;;;;;;;;;;;;;;2.06;100.00;99529.22;5004384;28;19933;-79
2024/02/07 08:48:24;;;;;;;;;;;;;;;2.14;100.00;99530.63;5014248;28;19936;-79
2024/02/07 08:50:52;;;;;;;;;;;;;;;2.14;100.00;99533.31;5009029;28;20690;-77
2024/02/07 08:53:20;;;;;;;;;;;;;;;2.18;100.00;99521.00;5008931;28;19933;-77
2024/02/07 08:55:55;;;;;;;;;;;;;;;2.17;100.00;99536.31;4981013;28;20568;-78
2024/02/07 08:58:29;;;;;;;;;;;;;;;2.32;100.00;99537.53;5007528;28;20023;-78
2024/02/07 09:01:02;;;;;;;;;;;;;;;2.34;100.00;99551.53;5006846;28;19956;-78
2024/02/07 09:03:31;;;;;;;;;;;;;;;2.34;100.00;99540.78;5003668;28;19933;-79
2024/02/07 09:05:58;;;;;;;;;;;;;;;2.42;100.00;99542.19;5004999;28;19933;-79
2024/02/07 09:08:26;;;;;;;;;;;;;;;2.40;100.00;99542.44;5002555;28;19933;-79
2024/02/07 09:10:59;;;;;;;;;;;;;;;2.47;100.00;99561.88;5005989;28;19940;-79
2024/02/07 09:13:27;;;;;;;;;;;;;;;2.52;100.00;99569.97;4997822;28;20289;-78
2024/02/07 09:16:01;;;;;;;;;;;;;;;2.53;100.00;99554.66;5009088;28;19933;-78
2024/02/07 09:18:36;;;;;;;;;;;;;;;2.58;100.00;99570.81;5012491;28;19940;-79
2024/02/07 09:21:04;;;;;;;;;;;;;;;2.65;100.00;99559.88;5002851;28;19940;-79
2024/02/07 09:23:37;;;;;;;;;;;;;;;2.58;100.00;99562.75;5015953;28;19925;-78
2024/02/07 09:26:10;;;;;;;;;;;;;;;2.55;100.00;99579.38;5015697;28;19939;-78
2024/02/07 09:28:38;;;;;;;;;;;;;;;2.56;100.00;99575.63;5003792;28;19933;-78
2024/02/07 09:31:12;;;;;;;;;;;;;;;2.55;100.00;99577.53;5019274;28;20382;-78
2024/02/07 09:33:45;;;;;;;;;;;;;;;2.54;100.00;99583.97;5012309;28;19940;-78
2024/02/07 09:36:12;;;;;;;;;;;;;;;2.52;100.00;99587.97;5009308;28;19939;-78
2024/02/07 09:38:45;;;;;;;;;;;;;;;2.53;100.00;99601.13;5019792;28;19933;-79
2024/02/07 09:41:20;;;;;;;;;;;;;;;2.50;100.00;99598.13;5012712;28;19933;-79
2024/02/07 09:43:48;;;;;;;;;;;;;;;2.44;100.00;99594.56;5002030;28;19940;-79
2024/02/07 09:46:25;;;;;;;;;;;;;;;2.55;100.00;99608.94;5015249;28;19933;-78
2024/02/07 09:48:54;;;;;;;;;;;;;;;2.75;100.00;99602.97;5006366;28;19933;-77
2024/02/07 09:51:27;;;;;;;;;;;;;;;2.79;100.00;99614.00;5016575;28;19954;-79
2024/02/07 09:54:00;;;;;;;;;;;;;;;2.88;100.00;99613.28;5009658;28;19940;-79
2024/02/07 09:56:31;;;;;;;;;;;;;;;2.75;100.00;99616.41;4968499;28;20215;-78
2024/02/07 09:59:04;;;;;;;;;;;;;;;2.72;100.00;99619.56;5009806;28;19956;-79
2024/02/07 10:01:34;;;;;;;;;;;;;;;2.76;100.00;99619.88;4999344;28;19933;-78
2024/02/07 10:04:02;;;;;;;;;;;;;;;2.77;100.00;99626.88;5007603;28;20004;-77
2024/02/07 10:06:35;;;;;;;;;;;;;;;2.79;100.00;99622.88;5003233;28;19956;-78
2024/02/07 10:09:09;;;;;;;;;;;;;;;2.82;100.00;99629.63;5005222;28;19936;-78
2024/02/07 10:11:37;;;;;;;;;;;;;;;2.77;100.00;99632.25;5007482;28;19936;-78
2024/02/07 10:14:05;;;;;;;;;;;;;;;2.84;100.00;99638.22;5012208;28;19936;-79
2024/02/07 10:16:42;;;;;;;;;;;;;;;2.77;100.00;99638.44;5003661;28;19947;-81
2024/02/07 10:19:11;;;;;;;;;;;;;;;2.74;100.00;99640.84;5035677;28;19940;-80
2024/02/07 10:21:44;;;;;;;;;;;;;;;2.73;100.00;99645.38;5004941;28;19939;-79
2024/02/07 10:24:17;;;;;;;;;;;;;;;2.73;100.00;99650.75;5006997;28;19944;-81
2024/02/07 10:26:50;;;;;;;;;;;;;;;2.79;100.00;99660.50;5004070;28;19940;-80
2024/02/07 10:29:25;;;;;;;;;;;;;;;2.75;100.00;99659.38;5011618;28;19933;-81
2024/02/07 10:31:54;;;;;;;;;;;;;;;2.79;100.00;99663.19;5040746;28;19936;-80
2024/02/07 10:34:22;;;;;;;;;;;;;;;2.85;100.00;99664.03;5009461;28;21662;-79
2024/02/07 10:36:58;;;;;;;;;;;;;;;2.83;100.00;99660.78;5002823;28;19933;-79
2024/02/07 10:39:27;;;;;;;;;;;;;;;2.83;100.00;99666.16;5008404;28;19934;-80
2024/02/07 10:42:07;;;;;;;;;;;;;;;2.93;100.00;99673.50;5006579;28;19933;-79
2024/02/07 10:44:34;;;;;;;;;;;;;;;2.99;100.00;99681.38;5008391;28;20289;-80
2024/02/07 10:47:10;;;;;;;;;;;;;;;3.10;100.00;99668.03;5007303;28;19940;-80
2024/02/07 10:49:43;;;;;;;;;;;;;;;3.13;100.00;99659.47;5005400;28;19933;-80
2024/02/07 10:52:12;;;;;;;;;;;;;;;3.23;100.00;99667.59;5006995;28;20694;-80
2024/02/07 10:54:46;;;;;;;;;;;;;;;3.23;100.00;99670.28;5003101;28;20788;-79
2024/02/07 10:57:22;;;;;;;;;;;;;;;3.30;100.00;99670.09;4974713;28;19940;-81
2024/02/07 10:59:51;;;;;;;;;;;;;;;3.38;100.00;99667.75;5020947;28;19939;-79
2024/02/07 11:02:26;;;;;;;;;;;;;;;3.40;100.00;99667.50;5010739;28;20011;-79
2024/02/07 11:04:54;;;;;;;;;;;;;;;3.41;100.00;99658.34;5007952;28;19944;-80
2024/02/07 11:07:22;;;;;;;;;;;;;;;3.52;100.00;99667.28;4999870;28;19940;-80
2024/02/07 11:09:50;;;;;;;;;;;;;;;3.53;100.00;99661.66;5009529;28;20361;-80
2024/02/07 11:12:24;;;;;;;;;;;;;;;3.58;100.00;99669.78;5007374;28;19972;-80
2024/02/07 11:14:58;;;;;;;;;;;;;;;3.46;100.00;99669.13;5006130;28;19933;-80
2024/02/07 11:17:28;;;;;;;;;;;;;;;3.46;100.00;99669.13;5018467;28;19933;-80
2024/02/07 11:20:01;;;;;;;;;;;;;;;3.52;100.00;99670.81;5011433;28;19950;-80
2024/02/07 11:22:31;;;;;;;;;;;;;;;3.62;100.00;99680.84;4999167;28;19935;-80
2024/02/07 11:25:00;;;;;;;;;;;;;;;3.58;100.00;99671.66;5002425;28;19940;-80
2024/02/07 11:27:33;;;;;;;;;;;;;;;3.53;100.00;99668.94;5013971;28;19933;-80
2024/02/07 11:30:08;;;;;;;;;;;;;;;3.53;100.00;99677.00;5012781;28;19933;-80
2024/02/07 11:32:42;;;;;;;;;;;;;;;3.57;100.00;99683.47;5008813;28;19940;-80
2024/02/07 11:35:18;;;;;;;;;;;;;;;3.46;100.00;99676.41;5012718;28;19933;-80
2024/02/07 11:37:52;;;;;;;;;;;;;;;3.58;100.00;99685.13;5011121;28;19941;-80
2024/02/07 11:40:23;;;;;;;;;;;;;;;3.57;100.00;99695.03;5006901;28;19936;-80
2024/02/07 11:43:00;;;;;;;;;;;;;;;3.55;100.00;99699.09;5009252;28;19933;-79
2024/02/07 11:45:36;;;;;;;;;;;;;;;3.53;100.00;99701.22;5006493;28;19944;-80
2024/02/07 11:48:18;;;;;;;;;;;;;;;3.53;100.00;99683.19;5008218;28;19933;-80
2024/02/07 11:50:52;;;;;;;;;;;;;;;3.55;100.00;99691.81;5012357;28;19940;-80
2024/02/07 11:53:21;;;;;;;;;;;;;;;3.54;100.00;99689.38;5006969;28;21464;-80
2024/02/07 11:55:54;;;;;;;;;;;;;;;3.66;100.00;99690.00;5000023;28;19933;-79
2024/02/07 11:58:27;;;;;;;;;;;;;;;3.64;100.00;99677.88;5004795;28;19940;-80
2024/02/07 12:00:55;;;;;;;;;;;;;;;3.57;100.00;99683.47;5005973;28;19933;-80
2024/02/07 12:03:29;;;;;;;;;;;;;;;3.56;100.00;99693.44;5001647;28;19940;-79
2024/02/07 12:05:58;;;;;;;;;;;;;;;3.55;100.00;99691.00;5008693;28;19936;-80
2024/02/07 12:08:31;;;;;;;;;;;;;;;3.66;100.00;99695.41;5008566;28;21927;-80
2024/02/07 12:10:59;;;;;;;;;;;;;;;3.63;100.00;99695.09;5010554;28;19955;-80
2024/02/07 12:13:33;;;;;;;;;;;;;;;3.63;100.00;99695.88;5037432;28;19933;-80
2024/02/07 12:16:08;;;;;;;;;;;;;;;3.54;100.00;99709.03;5002246;28;20323;-80
2024/02/07 12:18:44;;;;;;;;;;;;;;;3.58;100.00;99709.31;5018180;28;20159;-79
2024/02/07 12:21:12;;;;;;;;;;;;;;;3.54;100.00;99710.91;5018232;28;19937;-78
2024/02/07 12:23:45;;;;;;;;;;;;;;;3.48;100.00;99710.06;5007651;28;19933;-79
2024/02/07 12:26:23;;;;;;;;;;;;;;;3.48;100.00;99728.06;5048386;28;19933;-79
2024/02/07 12:28:56;;;;;;;;;;;;;;;3.50;100.00;99721.34;5008869;28;19933;-79
2024/02/07 12:31:29;;;;;;;;;;;;;;;3.45;100.00;99729.38;4999409;28;19940;-79
2024/02/07 12:34:04;;;;;;;;;;;;;;;3.45;100.00;99723.19;5007026;28;19939;-79
2024/02/07 12:36:37;;;;;;;;;;;;;;;3.39;100.00;99731.22;5011333;28;19940;-79
2024/02/07 12:39:09;;;;;;;;;;;;;;;3.32;100.00;99730.63;5010352;28;19933;-79
2024/02/07 12:41:42;;;;;;;;;;;;;;;3.36;100.00;99737.09;5011927;28;19933;-78
2024/02/07 12:44:16;;;;;;;;;;;;;;;3.37;100.00;99736.06;5008460;28;19936;-79
2024/02/07 12:46:49;;;;;;;;;;;;;;;3.47;100.00;99739.91;5011431;28;19956;-79
2024/02/07 12:49:19;;;;;;;;;;;;;;;3.42;100.00;99743.34;5012458;28;19937;-79
2024/02/07 12:51:47;;;;;;;;;;;;;;;3.47;100.00;99747.97;5006821;28;20490;-79
2024/02/07 12:54:20;;;;;;;;;;;;;;;3.47;100.00;99739.91;5008302;28;19937;-79
2024/02/07 12:56:53;;;;;;;;;;;;;;;3.49;100.00;99743.13;4983503;28;19933;-80
2024/02/07 12:59:28;;;;;;;;;;;;;;;3.54;100.00;99748.56;5018510;28;19940;-80
2024/02/07 13:01:56;;;;;;;;;;;;;;;3.57;100.00;99745.38;5038895;28;19941;-79
2024/02/07 13:04:26;;;;;;;;;;;;;;;3.57;100.00;99738.09;5010456;28;20047;-79
2024/02/07 13:06:59;;;;;;;;;;;;;;;3.44;100.00;99749.28;5005516;28;19940;-79
2024/02/07 13:09:32;;;;;;;;;;;;;;;3.41;100.00;99741.72;5005184;28;19946;-79
2024/02/07 13:12:05;;;;;;;;;;;;;;;3.36;100.00;99745.19;5038424;28;20468;-79
2024/02/07 13:14:33;;;;;;;;;;;;;;;3.38;100.00;99743.06;5002617;28;19940;-80
2024/02/07 13:17:06;;;;;;;;;;;;;;;3.40;100.00;99745.50;5022737;28;19936;-79
2024/02/07 13:19:41;;;;;;;;;;;;;;;3.40;100.00;99748.19;5037747;28;19939;-78
2024/02/07 13:22:14;;;;;;;;;;;;;;;3.44;100.00;99751.16;5009719;28;19936;-79
2024/02/07 13:24:42;;;;;;;;;;;;;;;3.38;100.00;99747.59;5016931;28;19929;-81
2024/02/07 13:27:11;;;;;;;;;;;;;;;3.34;100.00;99743.81;5004578;28;19941;-80
2024/02/07 13:29:45;;;;;;;;;;;;;;;3.31;100.00;99755.88;5005759;28;19933;-80
2024/02/07 13:32:15;;;;;;;;;;;;;;;3.32;100.00;99748.63;5009614;28;19940;-81
2024/02/07 13:34:50;;;;;;;;;;;;;;;3.36;100.00;99750.56;5002235;28;19929;-79
2024/02/07 13:37:18;;;;;;;;;;;;;;;3.30;100.00;99746.22;5005943;28;19940;-81
2024/02/07 13:39:51;;;;;;;;;;;;;;;3.33;100.00;99745.69;5007064;28;20645;-80
2024/02/07 13:42:19;;;;;;;;;;;;;;;3.30;100.00;99751.59;5004935;28;19940;-80
2024/02/07 13:44:52;;;;;;;;;;;;;;;3.30;100.00;99748.91;5011165;28;20474;-81
2024/02/07 13:47:20;;;;;;;;;;;;;;;3.25;100.00;99754.22;5007303;28;19933;-80
2024/02/07 13:49:54;;;;;;;;;;;;;;;3.19;100.00;99753.34;5004845;28;20203;-79
2024/02/07 13:52:22;;;;;;;;;;;;;;;3.13;100.00;99758.94;5007946;28;19933;-79
2024/02/07 13:54:50;;;;;;;;;;;;;;;3.12;100.00;99755.44;5007498;28;19942;-79
2024/02/07 13:57:18;;;;;;;;;;;;;;;3.05;100.00;99754.81;4982366;28;19940;-80
2024/02/07 13:59:46;;;;;;;;;;;;;;;3.00;100.00;99752.88;5007307;28;19933;-79
2024/02/07 14:02:14;;;;;;;;;;;;;;;2.99;100.00;99750.47;5012785;28;19955;-78
2024/02/07 14:04:47;;;;;;;;;;;;;;;2.93;100.00;99752.28;5007874;28;19933;-79
2024/02/07 14:07:22;;;;;;;;;;;;;;;2.87;100.00;99748.72;4993498;28;19933;-79
2024/02/07 14:09:55;;;;;;;;;;;;;;;2.80;100.00;99755.34;5002185;28;19940;-80
2024/02/07 14:12:28;;;;;;;;;;;;;;;2.72;100.00;99760.09;5005038;28;19940;-79
2024/02/07 14:15:01;;;;;;;;;;;;;;;2.66;100.00;99763.78;5000557;28;19940;-79